CheckWX is a tool to help pilots better visualize weather data.  It is not intended as a substitute for an official pre-flight weather briefing.

12:20:11 UTC

KPIL METAR
Port Isabel-Cameron County Airport
Port Isabel, Texas, USA
Current

27 mins ago

KPIL 181153Z AUTO 02016G23KT 10SM OVC017 15/11 A2996 RMK AO2 PK WND 02026/1054 SLP143 70001 T01500111 10167 20150 53005
Observed
Feb-18 @ 11:53 UTC
Wind
  • 020° at 16 KTS
  • Gusting to 23 KTS
Visibility
10 SM
Flight Rules
MVFR
Cloud Levels
  • Overcast at 1,700' AGL
Temperature
15°C / 59°F
Dewpoint
11°C / 52°F
Humidity
77%
Altimeter
29.96" Hg
Pressure
1014.3 hPa
Previous

1 hour ago

KPIL 181053Z AUTO 01018G24KT 10SM OVC016 16/11 A2995 RMK AO2 SLP140 T01560111
Observed
Feb-18 @ 10:53 UTC
Wind
  • 010° at 18 KTS
  • Gusting to 24 KTS
Visibility
10 SM
Flight Rules
MVFR
Cloud Levels
  • Overcast at 1,600' AGL
Temperature
16°C / 61°F
Dewpoint
11°C / 52°F
Humidity
72%
Altimeter
29.95" Hg
Pressure
1014 hPa
Previous

2 hours ago

KPIL 180953Z AUTO 36018G24KT 10SM OVC018 15/11 A2992 RMK AO2 SLP132 T01500111
Observed
Feb-18 @ 09:53 UTC
Wind
  • 360° at 18 KTS
  • Gusting to 24 KTS
Visibility
10 SM
Flight Rules
MVFR
Cloud Levels
  • Overcast at 1,800' AGL
Temperature
15°C / 59°F
Dewpoint
11°C / 52°F
Humidity
77%
Altimeter
29.92" Hg
Pressure
1013.2 hPa